RYR13QY EKCH-LEAL
Flight info
| Callsign | RYR13QY |
|---|---|
| Flight time | 2h 58m |
| Altitude | 34000 |
| Route | LANGO DCT CIV DCT MEDIL DCT KOVIN DCT DUCRA UM728 RESMI UN857 DISAK DCT DIRMO DCT GUERE DCT EVPOK DCT AGN DCT ANETO DCT POSSY DCT XIMPE DCT RIMES N860 VLC |
| Aircraft | B738/M-SDE2E3FGHIRWXY/LB1 |
Departure
| Time | 2026-04-26 06:58 |
|---|---|
| Airport | Copenhagen Kastrup Airport (EKCH) |
Arrival
| Time | 2026-04-26 09:57 |
|---|---|
| Airport | Alicante-Elche Miguel Hernández Airport (LEAL) |
| Time | Latitude | Longitude | Altitude | Speed | Heading |
|---|---|---|---|---|---|
| 2026-04-26 06:33 | 55.62511 | 12.65684 | 17 ft | 0 kts | 359° |
| 2026-04-26 06:48 | 55.62510 | 12.65684 | 16 ft | 2 kts | 359° |
| 2026-04-26 06:48 | 55.62485 | 12.65685 | 17 ft | 4 kts | 358° |
| 2026-04-26 06:48 | 55.62464 | 12.65687 | 17 ft | 4 kts | 342° |
| 2026-04-26 06:48 | 55.62452 | 12.65697 | 16 ft | 2 kts | 314° |
| 2026-04-26 06:50 | 55.62452 | 12.65693 | 16 ft | 1 kts | 298° |
| 2026-04-26 06:51 | 55.62450 | 12.65680 | 19 ft | 2 kts | 259° |
| 2026-04-26 06:51 | 55.62442 | 12.65590 | 16 ft | 5 kts | 266° |
| 2026-04-26 06:51 | 55.62440 | 12.65504 | 16 ft | 9 kts | 268° |
| 2026-04-26 06:52 | 55.62435 | 12.65378 | 16 ft | 11 kts | 251° |
| 2026-04-26 06:52 | 55.62360 | 12.65329 | 16 ft | 14 kts | 180° |
| 2026-04-26 06:52 | 55.62288 | 12.65253 | 16 ft | 13 kts | 249° |
| 2026-04-26 06:52 | 55.62210 | 12.65183 | 16 ft | 13 kts | 208° |
| 2026-04-26 06:53 | 55.62135 | 12.65097 | 16 ft | 13 kts | 214° |
| 2026-04-26 06:53 | 55.62062 | 12.65012 | 18 ft | 12 kts | 212° |
| 2026-04-26 06:53 | 55.61991 | 12.64932 | 17 ft | 13 kts | 213° |
| 2026-04-26 06:53 | 55.61912 | 12.64840 | 16 ft | 14 kts | 213° |
| 2026-04-26 06:54 | 55.61834 | 12.64750 | 16 ft | 13 kts | 213° |
| 2026-04-26 06:54 | 55.61759 | 12.64663 | 16 ft | 13 kts | 213° |
| 2026-04-26 06:54 | 55.61679 | 12.64572 | 16 ft | 15 kts | 213° |
| 2026-04-26 06:54 | 55.61579 | 12.64457 | 19 ft | 19 kts | 213° |
| 2026-04-26 06:55 | 55.61457 | 12.64316 | 16 ft | 23 kts | 213° |
| 2026-04-26 06:55 | 55.61315 | 12.64151 | 17 ft | 26 kts | 213° |
| 2026-04-26 06:55 | 55.61158 | 12.63972 | 16 ft | 28 kts | 213° |
| 2026-04-26 06:55 | 55.61001 | 12.63791 | 16 ft | 26 kts | 213° |
| 2026-04-26 06:56 | 55.60854 | 12.63622 | 16 ft | 24 kts | 213° |
| 2026-04-26 06:56 | 55.60716 | 12.63463 | 18 ft | 23 kts | 213° |
| 2026-04-26 06:56 | 55.60588 | 12.63303 | 16 ft | 22 kts | 223° |
| 2026-04-26 06:56 | 55.60477 | 12.63125 | 16 ft | 20 kts | 214° |
| 2026-04-26 06:57 | 55.60367 | 12.63219 | 17 ft | 20 kts | 129° |
| 2026-04-26 06:57 | 55.60378 | 12.63409 | 18 ft | 19 kts | 43° |
| 2026-04-26 06:57 | 55.60503 | 12.63604 | 17 ft | 42 kts | 41° |
| 2026-04-26 06:57 | 55.60898 | 12.64218 | 17 ft | 108 kts | 41° |
| 2026-04-26 06:58 | 55.61605 | 12.65311 | 33 ft | 159 kts | 38° |
| 2026-04-26 06:58 | 55.62459 | 12.66697 | 587 ft | 166 kts | 39° |
| 2026-04-26 06:58 | 55.63344 | 12.68077 | 1352 ft | 171 kts | 37° |
| 2026-04-26 06:58 | 55.64313 | 12.69540 | 1599 ft | 193 kts | 37° |
| 2026-04-26 06:59 | 55.65376 | 12.71134 | 1765 ft | 212 kts | 37° |
| 2026-04-26 06:59 | 55.66539 | 12.72867 | 2091 ft | 222 kts | 37° |
| 2026-04-26 06:59 | 55.67756 | 12.74679 | 2428 ft | 237 kts | 37° |
| 2026-04-26 06:59 | 55.69036 | 12.76589 | 3073 ft | 240 kts | 36° |
| 2026-04-26 07:00 | 55.70259 | 12.78638 | 3730 ft | 247 kts | 50° |
| 2026-04-26 07:00 | 55.70864 | 12.81540 | 4383 ft | 260 kts | 81° |
| 2026-04-26 07:00 | 55.70584 | 12.84708 | 5033 ft | 273 kts | 110° |
| 2026-04-26 07:00 | 55.69361 | 12.87342 | 5595 ft | 286 kts | 146° |
| 2026-04-26 07:01 | 55.67515 | 12.88729 | 6279 ft | 288 kts | 161° |
| 2026-04-26 07:01 | 55.65607 | 12.89866 | 6908 ft | 292 kts | 160° |
| 2026-04-26 07:01 | 55.63660 | 12.91055 | 7454 ft | 298 kts | 160° |
| 2026-04-26 07:01 | 55.61657 | 12.91895 | 7997 ft | 303 kts | 181° |
| 2026-04-26 07:02 | 55.59621 | 12.91126 | 8594 ft | 300 kts | 211° |
| 2026-04-26 07:02 | 55.57956 | 12.88981 | 9248 ft | 294 kts | 231° |
| 2026-04-26 07:02 | 55.56536 | 12.86357 | 9928 ft | 296 kts | 233° |
| 2026-04-26 07:02 | 55.55106 | 12.83686 | 10525 ft | 303 kts | 233° |
| 2026-04-26 07:03 | 55.53619 | 12.80929 | 10679 ft | 324 kts | 233° |
| 2026-04-26 07:03 | 55.52127 | 12.77815 | 10826 ft | 336 kts | 247° |
| 2026-04-26 07:03 | 55.51389 | 12.73924 | 11086 ft | 334 kts | 269° |
| 2026-04-26 07:03 | 55.51201 | 12.69820 | 11658 ft | 336 kts | 273° |
| 2026-04-26 07:04 | 55.51071 | 12.65688 | 12335 ft | 338 kts | 274° |
| 2026-04-26 07:04 | 55.50946 | 12.61612 | 13023 ft | 340 kts | 274° |
| 2026-04-26 07:04 | 55.50810 | 12.57408 | 13703 ft | 343 kts | 275° |
| 2026-04-26 07:04 | 55.50662 | 12.53183 | 14364 ft | 346 kts | 274° |
| 2026-04-26 07:05 | 55.50506 | 12.48937 | 15017 ft | 348 kts | 274° |
| 2026-04-26 07:05 | 55.50343 | 12.44663 | 15686 ft | 350 kts | 275° |
| 2026-04-26 07:05 | 55.50176 | 12.40367 | 16353 ft | 352 kts | 275° |
| 2026-04-26 07:05 | 55.50008 | 12.36044 | 17002 ft | 354 kts | 275° |
| 2026-04-26 07:06 | 55.49835 | 12.31692 | 17620 ft | 357 kts | 274° |
| 2026-04-26 07:06 | 55.49646 | 12.27282 | 18190 ft | 364 kts | 271° |
| 2026-04-26 07:06 | 55.48926 | 12.22881 | 18737 ft | 386 kts | 253° |
| 2026-04-26 07:06 | 55.47432 | 12.18821 | 19329 ft | 399 kts | 242° |
| 2026-04-26 07:07 | 55.45748 | 12.14909 | 19895 ft | 402 kts | 242° |
| 2026-04-26 07:07 | 55.44031 | 12.10995 | 20408 ft | 405 kts | 241° |
| 2026-04-26 07:07 | 55.42325 | 12.07104 | 20914 ft | 408 kts | 242° |
| 2026-04-26 07:07 | 55.40593 | 12.03130 | 21437 ft | 410 kts | 242° |
| 2026-04-26 07:08 | 55.38860 | 11.99128 | 21963 ft | 412 kts | 242° |
| 2026-04-26 07:08 | 55.37121 | 11.95097 | 22461 ft | 414 kts | 242° |
| 2026-04-26 07:08 | 55.35374 | 11.91043 | 22954 ft | 417 kts | 242° |
| 2026-04-26 07:08 | 55.33610 | 11.86954 | 23439 ft | 419 kts | 242° |
| 2026-04-26 07:09 | 55.31843 | 11.82861 | 23902 ft | 422 kts | 242° |
| 2026-04-26 07:09 | 55.30063 | 11.78748 | 24311 ft | 423 kts | 242° |
| 2026-04-26 07:09 | 55.28279 | 11.74631 | 24746 ft | 424 kts | 242° |
| 2026-04-26 07:09 | 55.26490 | 11.70512 | 25173 ft | 425 kts | 242° |
| 2026-04-26 07:10 | 55.21489 | 11.57815 | 26329 ft | 422 kts | 245° |
| 2026-04-26 07:11 | 55.18350 | 11.49095 | 27067 ft | 425 kts | 245° |
| 2026-04-26 07:11 | 55.16759 | 11.44723 | 27405 ft | 427 kts | 245° |
| 2026-04-26 07:11 | 55.15145 | 11.40331 | 27754 ft | 429 kts | 245° |
| 2026-04-26 07:11 | 55.13518 | 11.35936 | 28095 ft | 431 kts | 244° |
| 2026-04-26 07:12 | 55.11879 | 11.31532 | 28438 ft | 432 kts | 244° |
| 2026-04-26 07:12 | 55.10240 | 11.27139 | 28766 ft | 434 kts | 244° |
| 2026-04-26 07:12 | 55.08586 | 11.22715 | 29085 ft | 435 kts | 244° |
| 2026-04-26 07:12 | 55.06947 | 11.18339 | 29399 ft | 436 kts | 244° |
| 2026-04-26 07:13 | 55.05285 | 11.13911 | 29821 ft | 435 kts | 244° |
| 2026-04-26 07:13 | 55.03631 | 11.09516 | 30333 ft | 432 kts | 244° |
| 2026-04-26 07:13 | 55.01990 | 11.05160 | 30740 ft | 429 kts | 244° |
| 2026-04-26 07:13 | 55.00353 | 11.00817 | 31039 ft | 429 kts | 244° |
| 2026-04-26 07:14 | 54.98713 | 10.96464 | 31294 ft | 430 kts | 243° |
| 2026-04-26 07:14 | 54.97068 | 10.92111 | 31619 ft | 428 kts | 243° |
| 2026-04-26 07:14 | 54.95429 | 10.87790 | 32000 ft | 426 kts | 243° |
| 2026-04-26 07:14 | 54.93713 | 10.83585 | 32341 ft | 429 kts | 237° |
| 2026-04-26 07:15 | 54.91728 | 10.79665 | 32631 ft | 432 kts | 233° |
| 2026-04-26 07:15 | 54.89655 | 10.75869 | 32917 ft | 433 kts | 232° |
| 2026-04-26 07:15 | 54.87584 | 10.72167 | 33237 ft | 432 kts | 232° |
| 2026-04-26 07:15 | 54.85486 | 10.68419 | 33572 ft | 431 kts | 232° |
| 2026-04-26 07:16 | 54.83411 | 10.64682 | 33886 ft | 430 kts | 233° |
| 2026-04-26 07:16 | 54.81344 | 10.60925 | 34173 ft | 429 kts | 233° |
| 2026-04-26 07:16 | 54.79293 | 10.57172 | 34291 ft | 431 kts | 233° |
| 2026-04-26 07:17 | 54.75168 | 10.49580 | 34296 ft | 433 kts | 233° |
| 2026-04-26 07:17 | 54.71058 | 10.42030 | 34299 ft | 427 kts | 233° |
| 2026-04-26 07:18 | 54.67013 | 10.34617 | 34313 ft | 425 kts | 233° |
| 2026-04-26 07:18 | 54.62930 | 10.27155 | 34316 ft | 425 kts | 233° |
| 2026-04-26 07:19 | 54.58868 | 10.19755 | 34316 ft | 424 kts | 233° |
| 2026-04-26 07:19 | 54.54803 | 10.12375 | 34308 ft | 424 kts | 232° |
| 2026-04-26 07:20 | 54.50756 | 10.05050 | 34328 ft | 425 kts | 232° |
| 2026-04-26 07:20 | 54.46674 | 9.97683 | 34326 ft | 426 kts | 232° |
| 2026-04-26 07:21 | 54.42563 | 9.90288 | 34312 ft | 428 kts | 232° |
| 2026-04-26 07:21 | 54.38433 | 9.82883 | 34324 ft | 429 kts | 232° |
| 2026-04-26 07:22 | 54.34293 | 9.75483 | 34280 ft | 430 kts | 231° |
| 2026-04-26 07:22 | 54.30846 | 9.69339 | 34284 ft | 430 kts | 231° |
| 2026-04-26 07:23 | 54.26689 | 9.61953 | 34293 ft | 430 kts | 231° |
| 2026-04-26 07:23 | 54.22531 | 9.54589 | 34289 ft | 429 kts | 231° |
| 2026-04-26 07:24 | 54.18407 | 9.47304 | 34294 ft | 428 kts | 230° |
| 2026-04-26 07:24 | 54.14262 | 9.40005 | 34298 ft | 427 kts | 230° |
| 2026-04-26 07:25 | 54.10130 | 9.32750 | 34302 ft | 425 kts | 230° |
| 2026-04-26 07:25 | 54.06007 | 9.25533 | 34309 ft | 424 kts | 230° |
| 2026-04-26 07:26 | 54.01890 | 9.18350 | 34312 ft | 423 kts | 230° |
| 2026-04-26 07:26 | 53.97776 | 9.11192 | 34312 ft | 423 kts | 230° |
| 2026-04-26 07:27 | 53.93664 | 9.04059 | 34314 ft | 422 kts | 230° |
| 2026-04-26 07:27 | 53.89573 | 8.96983 | 34302 ft | 422 kts | 229° |
| 2026-04-26 07:28 | 53.85453 | 8.89882 | 34314 ft | 422 kts | 229° |
| 2026-04-26 07:28 | 53.81336 | 8.82803 | 34321 ft | 422 kts | 229° |
| 2026-04-26 07:29 | 53.77207 | 8.75725 | 34321 ft | 422 kts | 229° |
| 2026-04-26 07:29 | 53.73074 | 8.68663 | 34321 ft | 422 kts | 229° |
| 2026-04-26 07:30 | 53.68934 | 8.61609 | 34320 ft | 423 kts | 228° |
| 2026-04-26 07:30 | 53.64789 | 8.54567 | 34317 ft | 423 kts | 228° |
| 2026-04-26 07:31 | 53.60664 | 8.47581 | 34322 ft | 423 kts | 228° |
| 2026-04-26 07:31 | 53.56505 | 8.40557 | 34321 ft | 423 kts | 228° |
| 2026-04-26 07:32 | 53.52336 | 8.33539 | 34323 ft | 424 kts | 228° |
| 2026-04-26 07:32 | 53.48161 | 8.26530 | 34319 ft | 424 kts | 227° |
| 2026-04-26 07:33 | 53.44015 | 8.19588 | 34311 ft | 424 kts | 227° |
| 2026-04-26 07:33 | 53.39836 | 8.12614 | 34330 ft | 423 kts | 227° |
| 2026-04-26 07:34 | 53.35649 | 8.05649 | 34328 ft | 423 kts | 227° |
| 2026-04-26 07:34 | 53.31467 | 7.98709 | 34323 ft | 423 kts | 227° |
| 2026-04-26 07:35 | 53.27275 | 7.91774 | 34336 ft | 423 kts | 226° |
| 2026-04-26 07:35 | 53.23082 | 7.84857 | 34327 ft | 423 kts | 226° |
| 2026-04-26 07:36 | 53.18914 | 7.78002 | 34325 ft | 423 kts | 226° |
| 2026-04-26 07:36 | 53.14715 | 7.71115 | 34337 ft | 423 kts | 226° |
| 2026-04-26 07:37 | 53.10512 | 7.64243 | 34343 ft | 423 kts | 226° |
| 2026-04-26 07:37 | 53.06305 | 7.57384 | 34340 ft | 423 kts | 226° |
| 2026-04-26 07:38 | 53.02104 | 7.50554 | 34329 ft | 422 kts | 226° |
| 2026-04-26 07:38 | 52.97905 | 7.43747 | 34333 ft | 422 kts | 225° |
| 2026-04-26 07:39 | 52.93705 | 7.36957 | 34337 ft | 422 kts | 225° |
| 2026-04-26 07:39 | 52.89499 | 7.30177 | 34343 ft | 422 kts | 225° |
| 2026-04-26 07:40 | 52.85287 | 7.23408 | 34346 ft | 422 kts | 225° |
| 2026-04-26 07:40 | 52.81090 | 7.16680 | 34344 ft | 422 kts | 225° |
| 2026-04-26 07:41 | 52.76864 | 7.09926 | 34338 ft | 423 kts | 225° |
| 2026-04-26 07:41 | 52.72626 | 7.03173 | 34348 ft | 423 kts | 225° |
| 2026-04-26 07:42 | 52.68382 | 6.96429 | 34350 ft | 424 kts | 225° |
| 2026-04-26 07:42 | 52.64125 | 6.89683 | 34345 ft | 425 kts | 225° |
| 2026-04-26 07:43 | 52.59890 | 6.82991 | 34346 ft | 425 kts | 225° |
| 2026-04-26 07:43 | 52.55614 | 6.76255 | 34337 ft | 426 kts | 224° |
| 2026-04-26 07:44 | 52.51334 | 6.69529 | 34352 ft | 426 kts | 224° |
| 2026-04-26 07:44 | 52.47035 | 6.62794 | 34344 ft | 427 kts | 224° |
| 2026-04-26 07:45 | 52.42738 | 6.56081 | 34344 ft | 427 kts | 224° |
| 2026-04-26 07:45 | 52.38431 | 6.49372 | 34347 ft | 427 kts | 224° |
| 2026-04-26 07:46 | 52.34111 | 6.42662 | 34336 ft | 428 kts | 224° |
| 2026-04-26 07:46 | 52.29819 | 6.36014 | 34347 ft | 428 kts | 224° |
| 2026-04-26 07:47 | 52.25495 | 6.29333 | 34348 ft | 428 kts | 224° |
| 2026-04-26 07:47 | 52.21154 | 6.22648 | 34347 ft | 429 kts | 224° |
| 2026-04-26 07:48 | 52.16811 | 6.15977 | 34344 ft | 429 kts | 224° |
| 2026-04-26 07:48 | 52.12455 | 6.09305 | 34340 ft | 430 kts | 224° |
| 2026-04-26 07:49 | 52.08097 | 6.02649 | 34348 ft | 430 kts | 224° |
| 2026-04-26 07:49 | 52.03724 | 5.95988 | 34349 ft | 431 kts | 224° |
| 2026-04-26 07:50 | 51.97155 | 5.86019 | 34341 ft | 432 kts | 224° |
| 2026-04-26 07:50 | 51.92759 | 5.79371 | 34347 ft | 432 kts | 224° |
| 2026-04-26 07:51 | 51.88381 | 5.72768 | 34340 ft | 433 kts | 224° |
| 2026-04-26 07:51 | 51.83975 | 5.66141 | 34349 ft | 433 kts | 224° |
| 2026-04-26 07:52 | 51.79551 | 5.59506 | 34346 ft | 433 kts | 224° |
| 2026-04-26 07:52 | 51.75125 | 5.52887 | 34345 ft | 434 kts | 224° |
| 2026-04-26 07:53 | 51.70691 | 5.46275 | 34346 ft | 434 kts | 224° |
| 2026-04-26 07:53 | 51.66253 | 5.39675 | 34339 ft | 434 kts | 224° |
| 2026-04-26 07:54 | 51.61809 | 5.33085 | 34348 ft | 434 kts | 224° |
| 2026-04-26 07:54 | 51.57356 | 5.26499 | 34347 ft | 434 kts | 224° |
| 2026-04-26 07:55 | 51.52934 | 5.19978 | 34349 ft | 434 kts | 224° |
| 2026-04-26 07:55 | 51.48472 | 5.13415 | 34347 ft | 435 kts | 224° |
| 2026-04-26 07:56 | 51.44009 | 5.06869 | 34341 ft | 435 kts | 224° |
| 2026-04-26 07:56 | 51.39532 | 5.00320 | 34381 ft | 438 kts | 224° |
| 2026-04-26 07:57 | 51.37267 | 4.97015 | 34517 ft | 441 kts | 224° |
| 2026-04-26 07:57 | 51.35005 | 4.93717 | 34782 ft | 439 kts | 224° |
| 2026-04-26 07:57 | 51.32747 | 4.90432 | 35076 ft | 437 kts | 224° |
| 2026-04-26 07:57 | 51.30506 | 4.87175 | 35314 ft | 436 kts | 224° |
| 2026-04-26 07:58 | 51.26005 | 4.80645 | 35334 ft | 440 kts | 224° |
| 2026-04-26 07:58 | 51.21478 | 4.74099 | 35325 ft | 437 kts | 224° |
| 2026-04-26 07:59 | 51.16974 | 4.67603 | 35341 ft | 435 kts | 224° |
| 2026-04-26 07:59 | 51.12501 | 4.61169 | 35348 ft | 433 kts | 224° |
| 2026-04-26 08:00 | 51.08024 | 4.54745 | 35349 ft | 433 kts | 224° |
| 2026-04-26 08:00 | 51.03541 | 4.48330 | 35325 ft | 434 kts | 224° |
| 2026-04-26 08:01 | 50.99047 | 4.41918 | 35325 ft | 435 kts | 224° |
| 2026-04-26 08:01 | 50.94534 | 4.35496 | 35325 ft | 437 kts | 224° |
| 2026-04-26 08:02 | 50.89997 | 4.29057 | 35323 ft | 438 kts | 224° |
| 2026-04-26 08:02 | 50.85440 | 4.22608 | 35323 ft | 440 kts | 224° |
| 2026-04-26 08:03 | 50.80895 | 4.16194 | 35322 ft | 441 kts | 224° |
| 2026-04-26 08:03 | 50.76309 | 4.09739 | 35317 ft | 441 kts | 224° |
| 2026-04-26 08:04 | 50.71717 | 4.03292 | 35323 ft | 442 kts | 224° |
| 2026-04-26 08:04 | 50.67120 | 3.96855 | 35312 ft | 442 kts | 224° |
| 2026-04-26 08:05 | 50.62513 | 3.90420 | 35312 ft | 442 kts | 224° |
| 2026-04-26 08:05 | 50.57835 | 3.84124 | 35291 ft | 443 kts | 218° |
| 2026-04-26 08:06 | 50.55192 | 3.81621 | 35309 ft | 446 kts | 207° |
| 2026-04-26 08:06 | 50.53309 | 3.80306 | 35312 ft | 446 kts | 206° |
| 2026-04-26 08:06 | 50.46641 | 3.75916 | 35303 ft | 447 kts | 206° |
| 2026-04-26 08:07 | 50.41893 | 3.72731 | 35300 ft | 446 kts | 206° |
| 2026-04-26 08:07 | 50.36189 | 3.68853 | 35286 ft | 446 kts | 206° |
| 2026-04-26 08:08 | 50.30497 | 3.64996 | 35296 ft | 446 kts | 206° |
| 2026-04-26 08:08 | 50.24795 | 3.61146 | 35295 ft | 446 kts | 206° |
| 2026-04-26 08:09 | 50.19090 | 3.57302 | 35296 ft | 446 kts | 206° |
| 2026-04-26 08:09 | 50.13381 | 3.53465 | 35279 ft | 447 kts | 206° |
| 2026-04-26 08:10 | 50.07695 | 3.49653 | 35288 ft | 447 kts | 206° |
| 2026-04-26 08:10 | 50.01976 | 3.45828 | 35296 ft | 447 kts | 206° |
| 2026-04-26 08:11 | 49.96247 | 3.42007 | 35289 ft | 448 kts | 206° |
| 2026-04-26 08:11 | 49.90507 | 3.38189 | 35281 ft | 448 kts | 206° |
| 2026-04-26 08:12 | 49.84771 | 3.34382 | 35295 ft | 449 kts | 206° |
| 2026-04-26 08:12 | 49.79028 | 3.30581 | 35283 ft | 449 kts | 206° |
| 2026-04-26 08:13 | 49.73311 | 3.26807 | 35282 ft | 449 kts | 206° |
| 2026-04-26 08:13 | 49.67555 | 3.23017 | 35285 ft | 449 kts | 206° |
| 2026-04-26 08:14 | 49.61798 | 3.19236 | 35288 ft | 449 kts | 206° |
| 2026-04-26 08:14 | 49.56044 | 3.15465 | 35284 ft | 449 kts | 206° |
| 2026-04-26 08:15 | 49.50285 | 3.11701 | 35279 ft | 449 kts | 206° |
| 2026-04-26 08:15 | 49.44878 | 3.07073 | 35290 ft | 443 kts | 217° |
| 2026-04-26 08:16 | 49.39793 | 3.01780 | 35285 ft | 443 kts | 217° |
| 2026-04-26 08:16 | 49.34672 | 2.96491 | 35280 ft | 444 kts | 217° |
| 2026-04-26 08:17 | 49.29514 | 2.91252 | 35275 ft | 445 kts | 217° |
| 2026-04-26 08:17 | 49.24340 | 2.86038 | 35268 ft | 445 kts | 217° |
| 2026-04-26 08:18 | 49.19193 | 2.80867 | 35273 ft | 446 kts | 217° |
| 2026-04-26 08:18 | 49.14002 | 2.75662 | 35270 ft | 446 kts | 216° |
| 2026-04-26 08:19 | 49.08806 | 2.70464 | 35266 ft | 447 kts | 216° |
| 2026-04-26 08:19 | 49.03605 | 2.65273 | 35254 ft | 447 kts | 216° |
| 2026-04-26 08:20 | 48.98381 | 2.60071 | 35258 ft | 447 kts | 216° |
| 2026-04-26 08:20 | 48.93174 | 2.54901 | 35266 ft | 447 kts | 216° |
| 2026-04-26 08:21 | 48.87954 | 2.49729 | 35264 ft | 448 kts | 216° |
| 2026-04-26 08:21 | 48.82733 | 2.44566 | 35268 ft | 448 kts | 216° |
| 2026-04-26 08:22 | 48.77532 | 2.39435 | 35267 ft | 448 kts | 216° |
| 2026-04-26 08:22 | 48.72288 | 2.34274 | 35267 ft | 449 kts | 216° |
| 2026-04-26 08:23 | 48.67051 | 2.29132 | 35265 ft | 448 kts | 216° |
| 2026-04-26 08:23 | 48.61816 | 2.24004 | 35256 ft | 448 kts | 216° |
| 2026-04-26 08:24 | 48.56398 | 2.19313 | 35255 ft | 452 kts | 204° |
| 2026-04-26 08:24 | 48.50278 | 2.16890 | 35263 ft | 456 kts | 194° |
| 2026-04-26 08:25 | 48.44048 | 2.15024 | 35252 ft | 456 kts | 194° |
| 2026-04-26 08:25 | 48.37834 | 2.13065 | 35254 ft | 456 kts | 194° |
| 2026-04-26 08:26 | 48.31648 | 2.11074 | 35255 ft | 457 kts | 194° |
| 2026-04-26 08:26 | 48.25288 | 2.10463 | 35256 ft | 462 kts | 175° |
| 2026-04-26 08:27 | 48.18917 | 2.11960 | 35238 ft | 464 kts | 172° |
| 2026-04-26 08:27 | 48.12531 | 2.13338 | 35243 ft | 463 kts | 176° |
| 2026-04-26 08:28 | 48.06146 | 2.13817 | 35251 ft | 462 kts | 180° |
| 2026-04-26 08:28 | 47.99710 | 2.14072 | 35229 ft | 462 kts | 180° |
| 2026-04-26 08:29 | 47.93280 | 2.14376 | 35232 ft | 462 kts | 180° |
| 2026-04-26 08:29 | 47.86854 | 2.14735 | 35242 ft | 462 kts | 179° |
| 2026-04-26 08:30 | 47.80420 | 2.15110 | 35244 ft | 462 kts | 179° |
| 2026-04-26 08:30 | 47.74022 | 2.15484 | 35234 ft | 461 kts | 179° |
| 2026-04-26 08:31 | 47.67602 | 2.15855 | 35232 ft | 461 kts | 179° |
| 2026-04-26 08:31 | 47.61187 | 2.16224 | 35229 ft | 461 kts | 179° |
| 2026-04-26 08:32 | 47.54773 | 2.16592 | 35224 ft | 461 kts | 179° |
| 2026-04-26 08:32 | 47.48394 | 2.16958 | 35226 ft | 461 kts | 179° |
| 2026-04-26 08:33 | 47.41977 | 2.17324 | 35227 ft | 461 kts | 179° |
| 2026-04-26 08:33 | 47.35552 | 2.17690 | 35214 ft | 461 kts | 179° |
| 2026-04-26 08:34 | 47.29162 | 2.18053 | 35218 ft | 461 kts | 179° |
| 2026-04-26 08:34 | 47.22743 | 2.18418 | 35220 ft | 461 kts | 179° |
| 2026-04-26 08:35 | 47.16341 | 2.18780 | 35215 ft | 462 kts | 179° |
| 2026-04-26 08:35 | 47.09903 | 2.19143 | 35216 ft | 462 kts | 179° |
| 2026-04-26 08:36 | 47.03482 | 2.18793 | 35222 ft | 461 kts | 186° |
| 2026-04-26 08:36 | 46.97119 | 2.17944 | 35217 ft | 462 kts | 187° |
| 2026-04-26 08:37 | 46.90716 | 2.16946 | 35207 ft | 461 kts | 193° |
| 2026-04-26 08:37 | 46.84549 | 2.14444 | 35219 ft | 459 kts | 200° |
| 2026-04-26 08:38 | 46.78519 | 2.11457 | 35213 ft | 459 kts | 200° |
| 2026-04-26 08:38 | 46.72440 | 2.08542 | 35216 ft | 460 kts | 199° |
| 2026-04-26 08:39 | 46.66365 | 2.05750 | 35210 ft | 460 kts | 199° |
| 2026-04-26 08:39 | 46.60235 | 2.02975 | 35211 ft | 460 kts | 199° |
| 2026-04-26 08:40 | 46.54112 | 2.00210 | 35198 ft | 460 kts | 199° |
| 2026-04-26 08:40 | 46.48029 | 1.97463 | 35213 ft | 460 kts | 199° |
| 2026-04-26 08:41 | 46.41893 | 1.94698 | 35215 ft | 461 kts | 199° |
| 2026-04-26 08:41 | 46.35759 | 1.91939 | 35214 ft | 461 kts | 199° |
| 2026-04-26 08:42 | 46.29621 | 1.89185 | 35214 ft | 461 kts | 199° |
| 2026-04-26 08:42 | 46.23521 | 1.86458 | 35212 ft | 461 kts | 199° |
| 2026-04-26 08:43 | 46.17373 | 1.83738 | 35211 ft | 462 kts | 199° |
| 2026-04-26 08:43 | 46.11217 | 1.81040 | 35204 ft | 462 kts | 199° |
| 2026-04-26 08:44 | 46.05105 | 1.78365 | 35208 ft | 461 kts | 199° |
| 2026-04-26 08:44 | 45.98942 | 1.75670 | 35203 ft | 461 kts | 199° |
| 2026-04-26 08:45 | 45.92789 | 1.72984 | 35206 ft | 461 kts | 199° |
| 2026-04-26 08:45 | 45.86691 | 1.70328 | 35206 ft | 461 kts | 199° |
| 2026-04-26 08:46 | 45.80549 | 1.67659 | 35207 ft | 460 kts | 199° |
| 2026-04-26 08:46 | 45.74407 | 1.64997 | 35202 ft | 460 kts | 199° |
| 2026-04-26 08:47 | 45.68305 | 1.62358 | 35206 ft | 460 kts | 199° |
| 2026-04-26 08:47 | 45.62174 | 1.59712 | 35204 ft | 460 kts | 198° |
| 2026-04-26 08:48 | 45.56047 | 1.57073 | 35201 ft | 459 kts | 199° |
| 2026-04-26 08:48 | 45.49922 | 1.54441 | 35195 ft | 459 kts | 199° |
| 2026-04-26 08:49 | 45.43842 | 1.51835 | 35209 ft | 458 kts | 199° |
| 2026-04-26 08:49 | 45.37712 | 1.49216 | 35213 ft | 458 kts | 198° |
| 2026-04-26 08:50 | 45.31628 | 1.46622 | 35215 ft | 458 kts | 198° |
| 2026-04-26 08:50 | 45.25513 | 1.44020 | 35205 ft | 458 kts | 198° |
| 2026-04-26 08:51 | 45.16340 | 1.40126 | 35207 ft | 458 kts | 198° |
| 2026-04-26 08:52 | 45.10263 | 1.37553 | 35215 ft | 458 kts | 198° |
| 2026-04-26 08:52 | 45.04156 | 1.34974 | 35211 ft | 458 kts | 198° |
| 2026-04-26 08:53 | 44.98059 | 1.32405 | 35202 ft | 458 kts | 198° |
| 2026-04-26 08:53 | 44.91940 | 1.29832 | 35213 ft | 458 kts | 198° |
| 2026-04-26 08:54 | 44.85833 | 1.27270 | 35206 ft | 457 kts | 198° |
| 2026-04-26 08:54 | 44.79751 | 1.24724 | 35213 ft | 457 kts | 198° |
| 2026-04-26 08:55 | 44.74663 | 1.22598 | 35208 ft | 457 kts | 198° |
| 2026-04-26 08:55 | 44.68544 | 1.20047 | 35204 ft | 457 kts | 198° |
| 2026-04-26 08:56 | 44.62478 | 1.17524 | 35208 ft | 457 kts | 198° |
| 2026-04-26 08:56 | 44.56372 | 1.14989 | 35203 ft | 457 kts | 198° |
| 2026-04-26 08:57 | 44.50257 | 1.12456 | 35203 ft | 456 kts | 198° |
| 2026-04-26 08:57 | 44.44203 | 1.09954 | 35205 ft | 456 kts | 198° |
| 2026-04-26 08:58 | 44.38103 | 1.07438 | 35205 ft | 456 kts | 198° |
| 2026-04-26 08:58 | 44.32040 | 1.04944 | 35206 ft | 456 kts | 198° |
| 2026-04-26 08:59 | 44.25933 | 1.02436 | 35204 ft | 456 kts | 198° |
| 2026-04-26 08:59 | 44.19843 | 0.99940 | 35207 ft | 456 kts | 198° |
| 2026-04-26 09:00 | 44.13754 | 0.97450 | 35207 ft | 456 kts | 198° |
| 2026-04-26 09:00 | 44.07695 | 0.94978 | 35211 ft | 456 kts | 198° |
| 2026-04-26 09:01 | 44.01595 | 0.92495 | 35207 ft | 456 kts | 198° |
| 2026-04-26 09:01 | 43.95505 | 0.90019 | 35208 ft | 455 kts | 198° |
| 2026-04-26 09:02 | 43.89463 | 0.87570 | 35213 ft | 455 kts | 197° |
| 2026-04-26 09:02 | 43.83290 | 0.85617 | 35214 ft | 455 kts | 192° |
| 2026-04-26 09:03 | 43.77064 | 0.84047 | 35207 ft | 454 kts | 192° |
| 2026-04-26 09:03 | 43.70850 | 0.82469 | 35209 ft | 453 kts | 192° |
| 2026-04-26 09:04 | 43.64664 | 0.80843 | 35208 ft | 451 kts | 192° |
| 2026-04-26 09:04 | 43.58543 | 0.79213 | 35214 ft | 450 kts | 192° |
| 2026-04-26 09:05 | 43.52394 | 0.77575 | 35205 ft | 449 kts | 192° |
| 2026-04-26 09:05 | 43.46258 | 0.75945 | 35198 ft | 448 kts | 192° |
| 2026-04-26 09:06 | 43.40164 | 0.74330 | 35216 ft | 448 kts | 192° |
| 2026-04-26 09:06 | 43.34020 | 0.72707 | 35207 ft | 448 kts | 192° |
| 2026-04-26 09:07 | 43.27938 | 0.71103 | 35205 ft | 448 kts | 192° |
| 2026-04-26 09:07 | 43.21804 | 0.69488 | 35199 ft | 448 kts | 192° |
| 2026-04-26 09:08 | 43.15666 | 0.67876 | 35203 ft | 448 kts | 192° |
| 2026-04-26 09:08 | 43.09525 | 0.66266 | 35200 ft | 448 kts | 192° |
| 2026-04-26 09:09 | 43.03436 | 0.64673 | 35206 ft | 448 kts | 192° |
| 2026-04-26 09:09 | 42.97310 | 0.63074 | 35203 ft | 448 kts | 192° |
| 2026-04-26 09:10 | 42.91187 | 0.61478 | 35192 ft | 447 kts | 192° |
| 2026-04-26 09:10 | 42.85069 | 0.59887 | 35186 ft | 446 kts | 192° |
| 2026-04-26 09:11 | 42.79018 | 0.58317 | 35205 ft | 444 kts | 192° |
| 2026-04-26 09:11 | 42.72944 | 0.56743 | 35195 ft | 443 kts | 192° |
| 2026-04-26 09:12 | 42.67028 | 0.54521 | 35180 ft | 439 kts | 206° |
| 2026-04-26 09:12 | 42.61543 | 0.50959 | 35200 ft | 439 kts | 207° |
| 2026-04-26 09:13 | 42.56044 | 0.47353 | 35184 ft | 438 kts | 207° |
| 2026-04-26 09:13 | 42.50550 | 0.43815 | 35165 ft | 438 kts | 207° |
| 2026-04-26 09:14 | 42.45023 | 0.40292 | 35177 ft | 438 kts | 206° |
| 2026-04-26 09:14 | 42.39496 | 0.36783 | 35163 ft | 438 kts | 206° |
| 2026-04-26 09:15 | 42.34002 | 0.33299 | 35162 ft | 438 kts | 206° |
| 2026-04-26 09:15 | 42.28465 | 0.29794 | 35157 ft | 439 kts | 206° |
| 2026-04-26 09:16 | 42.22924 | 0.26292 | 35157 ft | 439 kts | 206° |
| 2026-04-26 09:16 | 42.17412 | 0.22816 | 35144 ft | 440 kts | 206° |
| 2026-04-26 09:17 | 42.11847 | 0.19311 | 35160 ft | 440 kts | 206° |
| 2026-04-26 09:17 | 42.06259 | 0.16041 | 35155 ft | 441 kts | 198° |
| 2026-04-26 09:18 | 42.00183 | 0.14648 | 35161 ft | 443 kts | 187° |
| 2026-04-26 09:18 | 41.94033 | 0.13815 | 35149 ft | 443 kts | 187° |
| 2026-04-26 09:19 | 41.87923 | 0.12958 | 35156 ft | 443 kts | 187° |
| 2026-04-26 09:19 | 41.81780 | 0.12055 | 35159 ft | 444 kts | 187° |
| 2026-04-26 09:20 | 41.75664 | 0.11140 | 35162 ft | 444 kts | 187° |
| 2026-04-26 09:20 | 41.69534 | 0.10223 | 35161 ft | 444 kts | 187° |
| 2026-04-26 09:21 | 41.63386 | 0.09307 | 35158 ft | 444 kts | 187° |
| 2026-04-26 09:21 | 41.57273 | 0.08398 | 35157 ft | 444 kts | 187° |
| 2026-04-26 09:22 | 41.51131 | 0.07487 | 35158 ft | 444 kts | 187° |
| 2026-04-26 09:22 | 41.44992 | 0.06578 | 35161 ft | 444 kts | 187° |
| 2026-04-26 09:23 | 41.38842 | 0.05670 | 35161 ft | 444 kts | 187° |
| 2026-04-26 09:23 | 41.32731 | 0.04768 | 35158 ft | 444 kts | 187° |
| 2026-04-26 09:24 | 41.26562 | 0.03860 | 35161 ft | 444 kts | 186° |
| 2026-04-26 09:24 | 41.20456 | 0.02963 | 35160 ft | 444 kts | 186° |
| 2026-04-26 09:25 | 41.14296 | 0.02059 | 35164 ft | 444 kts | 186° |
| 2026-04-26 09:25 | 41.08151 | 0.01160 | 35160 ft | 444 kts | 186° |
| 2026-04-26 09:26 | 41.02029 | 0.00270 | 35162 ft | 444 kts | 186° |
| 2026-04-26 09:26 | 40.95890 | -0.00620 | 35157 ft | 444 kts | 186° |
| 2026-04-26 09:27 | 40.89736 | -0.01512 | 35154 ft | 444 kts | 186° |
| 2026-04-26 09:27 | 40.83580 | -0.02402 | 35158 ft | 444 kts | 186° |
| 2026-04-26 09:28 | 40.77469 | -0.03284 | 35160 ft | 444 kts | 186° |
| 2026-04-26 09:28 | 40.71314 | -0.04171 | 35157 ft | 445 kts | 186° |
| 2026-04-26 09:29 | 40.65150 | -0.05058 | 35161 ft | 444 kts | 186° |
| 2026-04-26 09:29 | 40.58993 | -0.05942 | 35163 ft | 445 kts | 186° |
| 2026-04-26 09:30 | 40.52934 | -0.07340 | 35176 ft | 444 kts | 196° |
| 2026-04-26 09:30 | 40.47016 | -0.09771 | 35175 ft | 445 kts | 197° |
| 2026-04-26 09:31 | 40.41110 | -0.12189 | 35177 ft | 445 kts | 195° |
| 2026-04-26 09:31 | 40.35213 | -0.14526 | 35183 ft | 445 kts | 196° |
| 2026-04-26 09:32 | 40.29274 | -0.16859 | 35183 ft | 445 kts | 195° |
| 2026-04-26 09:32 | 40.23338 | -0.19189 | 35182 ft | 445 kts | 195° |
| 2026-04-26 09:33 | 40.17389 | -0.21542 | 35178 ft | 446 kts | 195° |
| 2026-04-26 09:33 | 40.11473 | -0.23880 | 35174 ft | 447 kts | 195° |
| 2026-04-26 09:34 | 40.05499 | -0.26235 | 35156 ft | 447 kts | 195° |
| 2026-04-26 09:34 | 39.99532 | -0.28581 | 35154 ft | 448 kts | 195° |
| 2026-04-26 09:35 | 39.93579 | -0.30879 | 35156 ft | 446 kts | 195° |
| 2026-04-26 09:35 | 39.90648 | -0.32005 | 35139 ft | 431 kts | 195° |
| 2026-04-26 09:35 | 39.87804 | -0.33101 | 35136 ft | 417 kts | 195° |
| 2026-04-26 09:35 | 39.85061 | -0.34167 | 35135 ft | 404 kts | 195° |
| 2026-04-26 09:36 | 39.82446 | -0.35188 | 35131 ft | 391 kts | 195° |
| 2026-04-26 09:36 | 39.79871 | -0.36193 | 35137 ft | 378 kts | 195° |
| 2026-04-26 09:36 | 39.77374 | -0.37165 | 35144 ft | 373 kts | 195° |
| 2026-04-26 09:37 | 39.72334 | -0.39120 | 35175 ft | 386 kts | 195° |
| 2026-04-26 09:37 | 39.67069 | -0.41159 | 35170 ft | 398 kts | 195° |
| 2026-04-26 09:38 | 39.61744 | -0.43222 | 35163 ft | 399 kts | 195° |
| 2026-04-26 09:38 | 39.56478 | -0.45260 | 35143 ft | 389 kts | 194° |
| 2026-04-26 09:39 | 39.51309 | -0.47255 | 35161 ft | 391 kts | 194° |
| 2026-04-26 09:39 | 39.46066 | -0.49242 | 35163 ft | 393 kts | 194° |
| 2026-04-26 09:40 | 39.40783 | -0.51126 | 35167 ft | 394 kts | 193° |
| 2026-04-26 09:40 | 39.35470 | -0.53006 | 35165 ft | 396 kts | 193° |
| 2026-04-26 09:41 | 39.30180 | -0.54886 | 34889 ft | 397 kts | 193° |
| 2026-04-26 09:41 | 39.27485 | -0.55844 | 34114 ft | 406 kts | 193° |
| 2026-04-26 09:41 | 39.24716 | -0.56827 | 33014 ft | 420 kts | 193° |
| 2026-04-26 09:41 | 39.21836 | -0.57848 | 31872 ft | 435 kts | 193° |
| 2026-04-26 09:42 | 39.18908 | -0.58888 | 30866 ft | 446 kts | 193° |
| 2026-04-26 09:42 | 39.15889 | -0.59961 | 29859 ft | 454 kts | 193° |
| 2026-04-26 09:42 | 39.12828 | -0.61050 | 28839 ft | 458 kts | 193° |
| 2026-04-26 09:42 | 39.09742 | -0.62147 | 28009 ft | 459 kts | 193° |
| 2026-04-26 09:43 | 39.06670 | -0.63238 | 27219 ft | 458 kts | 193° |
| 2026-04-26 09:43 | 39.04632 | -0.63962 | 26532 ft | 457 kts | 193° |
| 2026-04-26 09:43 | 39.01550 | -0.65052 | 25346 ft | 461 kts | 193° |
| 2026-04-26 09:43 | 38.98451 | -0.66148 | 24295 ft | 462 kts | 193° |
| 2026-04-26 09:44 | 38.95360 | -0.67240 | 23409 ft | 458 kts | 193° |
| 2026-04-26 09:44 | 38.92313 | -0.68317 | 22582 ft | 450 kts | 193° |
| 2026-04-26 09:44 | 38.89313 | -0.69376 | 21758 ft | 443 kts | 193° |
| 2026-04-26 09:44 | 38.86361 | -0.70417 | 20850 ft | 437 kts | 193° |
| 2026-04-26 09:45 | 38.83476 | -0.71432 | 19895 ft | 433 kts | 193° |
| 2026-04-26 09:45 | 38.80578 | -0.72451 | 19002 ft | 429 kts | 193° |
| 2026-04-26 09:45 | 38.77732 | -0.73451 | 18520 ft | 415 kts | 193° |
| 2026-04-26 09:45 | 38.75009 | -0.74410 | 18353 ft | 394 kts | 193° |
| 2026-04-26 09:46 | 38.72438 | -0.75314 | 18133 ft | 373 kts | 193° |
| 2026-04-26 09:46 | 38.70007 | -0.76167 | 17794 ft | 359 kts | 193° |
| 2026-04-26 09:46 | 38.67590 | -0.77012 | 16786 ft | 364 kts | 193° |
| 2026-04-26 09:46 | 38.65101 | -0.77879 | 15637 ft | 374 kts | 193° |
| 2026-04-26 09:47 | 38.62571 | -0.78762 | 14606 ft | 378 kts | 193° |
| 2026-04-26 09:47 | 38.60035 | -0.79649 | 13756 ft | 376 kts | 193° |
| 2026-04-26 09:47 | 38.57551 | -0.80518 | 12990 ft | 370 kts | 193° |
| 2026-04-26 09:47 | 38.55083 | -0.81382 | 12226 ft | 364 kts | 193° |
| 2026-04-26 09:48 | 38.52776 | -0.82717 | 11406 ft | 366 kts | 214° |
| 2026-04-26 09:48 | 38.51059 | -0.85083 | 10640 ft | 366 kts | 237° |
| 2026-04-26 09:48 | 38.49732 | -0.87835 | 9897 ft | 361 kts | 232° |
| 2026-04-26 09:48 | 38.48042 | -0.90139 | 9349 ft | 347 kts | 217° |
| 2026-04-26 09:49 | 38.46163 | -0.91869 | 9101 ft | 328 kts | 209° |
| 2026-04-26 09:49 | 38.44203 | -0.93338 | 8428 ft | 325 kts | 205° |
| 2026-04-26 09:49 | 38.42204 | -0.94663 | 7848 ft | 321 kts | 203° |
| 2026-04-26 09:49 | 38.40221 | -0.95840 | 7504 ft | 309 kts | 200° |
| 2026-04-26 09:50 | 38.38240 | -0.96874 | 6984 ft | 305 kts | 198° |
| 2026-04-26 09:50 | 38.36260 | -0.97747 | 6580 ft | 293 kts | 186° |
| 2026-04-26 09:50 | 38.34322 | -0.97539 | 6229 ft | 273 kts | 153° |
| 2026-04-26 09:50 | 38.32924 | -0.96104 | 5989 ft | 253 kts | 119° |
| 2026-04-26 09:51 | 38.32486 | -0.94068 | 5731 ft | 240 kts | 86° |
| 2026-04-26 09:51 | 38.32637 | -0.91977 | 5418 ft | 234 kts | 86° |
| 2026-04-26 09:51 | 38.32659 | -0.89925 | 5135 ft | 230 kts | 91° |
| 2026-04-26 09:51 | 38.32585 | -0.87900 | 4842 ft | 227 kts | 94° |
| 2026-04-26 09:52 | 38.32417 | -0.85920 | 4536 ft | 223 kts | 97° |
| 2026-04-26 09:52 | 38.31915 | -0.82138 | 3991 ft | 214 kts | 99° |
| 2026-04-26 09:52 | 38.31651 | -0.80283 | 3687 ft | 212 kts | 99° |
| 2026-04-26 09:53 | 38.31391 | -0.78452 | 3417 ft | 208 kts | 99° |
| 2026-04-26 09:53 | 38.31139 | -0.76662 | 3149 ft | 203 kts | 99° |
| 2026-04-26 09:53 | 38.30890 | -0.74913 | 2887 ft | 197 kts | 98° |
| 2026-04-26 09:53 | 38.30652 | -0.73213 | 2611 ft | 189 kts | 98° |
| 2026-04-26 09:54 | 38.30429 | -0.71620 | 2357 ft | 181 kts | 98° |
| 2026-04-26 09:54 | 38.30211 | -0.70072 | 2128 ft | 172 kts | 99° |
| 2026-04-26 09:54 | 38.30007 | -0.68615 | 1921 ft | 160 kts | 99° |
| 2026-04-26 09:54 | 38.29819 | -0.67285 | 1683 ft | 149 kts | 99° |
| 2026-04-26 09:55 | 38.29643 | -0.66028 | 1482 ft | 144 kts | 99° |
| 2026-04-26 09:55 | 38.29470 | -0.64784 | 1300 ft | 147 kts | 99° |
| 2026-04-26 09:55 | 38.29288 | -0.63485 | 1110 ft | 151 kts | 99° |
| 2026-04-26 09:55 | 38.29105 | -0.62180 | 923 ft | 148 kts | 99° |
| 2026-04-26 09:56 | 38.28919 | -0.60895 | 774 ft | 147 kts | 99° |
| 2026-04-26 09:56 | 38.28746 | -0.59598 | 571 ft | 150 kts | 99° |
| 2026-04-26 09:56 | 38.28560 | -0.58285 | 331 ft | 151 kts | 100° |
| 2026-04-26 09:56 | 38.28383 | -0.56991 | 140 ft | 144 kts | 99° |
| 2026-04-26 09:57 | 38.28232 | -0.55918 | 105 ft | 94 kts | 99° |
| 2026-04-26 09:57 | 38.28154 | -0.55368 | 88 ft | 34 kts | 100° |
| 2026-04-26 09:57 | 38.28132 | -0.55199 | 82 ft | 19 kts | 99° |
| 2026-04-26 09:57 | 38.28125 | -0.55023 | 84 ft | 21 kts | 84° |
| 2026-04-26 09:58 | 38.28162 | -0.54833 | 70 ft | 24 kts | 71° |
| 2026-04-26 09:58 | 38.28235 | -0.54723 | 64 ft | 14 kts | 323° |
| 2026-04-26 09:58 | 38.28259 | -0.54839 | 69 ft | 13 kts | 279° |
| 2026-04-26 09:58 | 38.28274 | -0.54952 | 73 ft | 14 kts | 280° |
| 2026-04-26 09:59 | 38.28293 | -0.55086 | 81 ft | 17 kts | 280° |
| 2026-04-26 09:59 | 38.28315 | -0.55242 | 88 ft | 18 kts | 280° |
| 2026-04-26 09:59 | 38.28336 | -0.55395 | 91 ft | 17 kts | 280° |
| 2026-04-26 09:59 | 38.28357 | -0.55543 | 97 ft | 17 kts | 279° |
| 2026-04-26 10:00 | 38.28377 | -0.55685 | 100 ft | 15 kts | 280° |
| 2026-04-26 10:00 | 38.28401 | -0.55750 | 100 ft | 7 kts | 345° |
| 2026-04-26 10:00 | 38.28443 | -0.55745 | 96 ft | 2 kts | 10° |
| 2026-04-26 10:00 | 38.28456 | -0.55742 | 97 ft | 0 kts | 10° |